sensor_id;sensor_type;location;lat;lon;timestamp;temperature;humidity
18717;DHT22;9487;50.892;6.906;2023-11-18T00:01:01;4.70;99.90
18717;DHT22;9487;50.892;6.906;2023-11-18T00:03:29;4.80;99.90
18717;DHT22;9487;50.892;6.906;2023-11-18T00:05:56;4.80;99.90
18717;DHT22;9487;50.892;6.906;2023-11-18T00:08:24;4.80;99.90
18717;DHT22;9487;50.892;6.906;2023-11-18T00:10:51;4.80;99.90
18717;DHT22;9487;50.892;6.906;2023-11-18T00:13:19;4.90;99.90
18717;DHT22;9487;50.892;6.906;2023-11-18T00:15:46;4.90;99.90
18717;DHT22;9487;50.892;6.906;2023-11-18T00:18:13;5.00;99.90
18717;DHT22;9487;50.892;6.906;2023-11-18T00:20:41;5.00;99.90
18717;DHT22;9487;50.892;6.906;2023-11-18T00:23:08;4.90;99.90
18717;DHT22;9487;50.892;6.906;2023-11-18T00:25:36;5.00;99.90
18717;DHT22;9487;50.892;6.906;2023-11-18T00:28:06;5.00;99.90
18717;DHT22;9487;50.892;6.906;2023-11-18T00:30:34;5.00;99.90
18717;DHT22;9487;50.892;6.906;2023-11-18T00:33:03;5.00;99.90
18717;DHT22;9487;50.892;6.906;2023-11-18T00:35:30;5.00;99.90
18717;DHT22;9487;50.892;6.906;2023-11-18T00:37:59;5.00;99.90
18717;DHT22;9487;50.892;6.906;2023-11-18T00:40:26;5.10;99.90
18717;DHT22;9487;50.892;6.906;2023-11-18T00:42:58;5.00;99.90
18717;DHT22;9487;50.892;6.906;2023-11-18T00:45:27;5.00;99.90
18717;DHT22;9487;50.892;6.906;2023-11-18T00:47:56;5.20;99.90
18717;DHT22;9487;50.892;6.906;2023-11-18T00:50:25;5.10;99.90
18717;DHT22;9487;50.892;6.906;2023-11-18T00:52:53;5.10;99.90
18717;DHT22;9487;50.892;6.906;2023-11-18T00:55:21;5.20;99.90
18717;DHT22;9487;50.892;6.906;2023-11-18T00:57:48;5.10;99.90
18717;DHT22;9487;50.892;6.906;2023-11-18T01:00:17;5.10;99.90
18717;DHT22;9487;50.892;6.906;2023-11-18T01:02:47;5.20;99.90
18717;DHT22;9487;50.892;6.906;2023-11-18T01:05:16;5.20;99.90
18717;DHT22;9487;50.892;6.906;2023-11-18T01:07:43;5.30;99.90
18717;DHT22;9487;50.892;6.906;2023-11-18T01:10:10;5.40;99.90
18717;DHT22;9487;50.892;6.906;2023-11-18T01:12:36;5.40;99.90
18717;DHT22;9487;50.892;6.906;2023-11-18T01:15:05;5.30;99.90
18717;DHT22;9487;50.892;6.906;2023-11-18T01:17:37;5.20;99.90
18717;DHT22;9487;50.892;6.906;2023-11-18T01:20:07;5.30;99.90
18717;DHT22;9487;50.892;6.906;2023-11-18T01:22:36;5.30;99.90
18717;DHT22;9487;50.892;6.906;2023-11-18T01:25:05;5.30;99.90
18717;DHT22;9487;50.892;6.906;2023-11-18T01:27:34;5.30;99.90
18717;DHT22;9487;50.892;6.906;2023-11-18T01:30:01;5.40;99.90
18717;DHT22;9487;50.892;6.906;2023-11-18T01:32:30;5.40;99.90
18717;DHT22;9487;50.892;6.906;2023-11-18T01:34:58;5.40;99.90
18717;DHT22;9487;50.892;6.906;2023-11-18T01:37:25;5.30;99.90
18717;DHT22;9487;50.892;6.906;2023-11-18T01:39:52;5.40;99.90
18717;DHT22;9487;50.892;6.906;2023-11-18T01:42:20;5.30;99.90
18717;DHT22;9487;50.892;6.906;2023-11-18T01:44:47;5.30;99.90
18717;DHT22;9487;50.892;6.906;2023-11-18T01:47:14;5.40;99.90
18717;DHT22;9487;50.892;6.906;2023-11-18T01:49:42;5.40;99.90
18717;DHT22;9487;50.892;6.906;2023-11-18T01:52:11;5.30;99.90
18717;DHT22;9487;50.892;6.906;2023-11-18T01:54:38;5.40;99.90
18717;DHT22;9487;50.892;6.906;2023-11-18T01:57:09;5.30;99.90
18717;DHT22;9487;50.892;6.906;2023-11-18T01:59:36;5.40;99.90
18717;DHT22;9487;50.892;6.906;2023-11-18T02:02:05;5.50;99.90
18717;DHT22;9487;50.892;6.906;2023-11-18T02:04:37;5.50;99.90
18717;DHT22;9487;50.892;6.906;2023-11-18T02:07:04;5.60;99.90
18717;DHT22;9487;50.892;6.906;2023-11-18T02:09:36;5.50;99.90
18717;DHT22;9487;50.892;6.906;2023-11-18T02:12:11;5.40;99.90
18717;DHT22;9487;50.892;6.906;2023-11-18T02:14:43;5.50;99.90
18717;DHT22;9487;50.892;6.906;2023-11-18T02:17:13;5.40;99.90
18717;DHT22;9487;50.892;6.906;2023-11-18T02:19:41;5.40;99.90
18717;DHT22;9487;50.892;6.906;2023-11-18T02:22:10;5.50;99.90
18717;DHT22;9487;50.892;6.906;2023-11-18T02:24:41;5.60;99.90
18717;DHT22;9487;50.892;6.906;2023-11-18T02:27:09;5.60;99.90
18717;DHT22;9487;50.892;6.906;2023-11-18T02:29:38;5.60;99.90
18717;DHT22;9487;50.892;6.906;2023-11-18T02:32:11;5.50;99.90
18717;DHT22;9487;50.892;6.906;2023-11-18T02:34:43;5.60;99.90
18717;DHT22;9487;50.892;6.906;2023-11-18T02:37:14;5.60;99.90
18717;DHT22;9487;50.892;6.906;2023-11-18T02:39:43;5.60;99.90
18717;DHT22;9487;50.892;6.906;2023-11-18T02:42:14;5.60;99.90
18717;DHT22;9487;50.892;6.906;2023-11-18T02:44:44;5.60;99.90
18717;DHT22;9487;50.892;6.906;2023-11-18T02:47:11;5.50;99.90
18717;DHT22;9487;50.892;6.906;2023-11-18T02:49:39;5.50;99.90
18717;DHT22;9487;50.892;6.906;2023-11-18T02:52:07;5.50;99.90
18717;DHT22;9487;50.892;6.906;2023-11-18T02:54:35;5.40;99.90
18717;DHT22;9487;50.892;6.906;2023-11-18T02:57:03;5.40;99.90
18717;DHT22;9487;50.892;6.906;2023-11-18T02:59:31;5.40;99.90
18717;DHT22;9487;50.892;6.906;2023-11-18T03:01:59;5.40;99.90
18717;DHT22;9487;50.892;6.906;2023-11-18T03:04:27;5.40;99.90
18717;DHT22;9487;50.892;6.906;2023-11-18T03:06:54;5.40;99.90
18717;DHT22;9487;50.892;6.906;2023-11-18T03:09:21;5.50;99.90
18717;DHT22;9487;50.892;6.906;2023-11-18T03:11:48;5.50;99.90
18717;DHT22;9487;50.892;6.906;2023-11-18T03:14:16;5.60;99.90
18717;DHT22;9487;50.892;6.906;2023-11-18T03:16:46;5.60;99.90
18717;DHT22;9487;50.892;6.906;2023-11-18T03:19:14;5.50;99.90
18717;DHT22;9487;50.892;6.906;2023-11-18T03:21:41;5.50;99.90
18717;DHT22;9487;50.892;6.906;2023-11-18T03:24:09;5.60;99.90
18717;DHT22;9487;50.892;6.906;2023-11-18T03:26:35;5.50;99.90
18717;DHT22;9487;50.892;6.906;2023-11-18T03:29:03;5.50;99.90
18717;DHT22;9487;50.892;6.906;2023-11-18T03:31:29;5.50;99.90
18717;DHT22;9487;50.892;6.906;2023-11-18T03:33:58;5.50;99.90
18717;DHT22;9487;50.892;6.906;2023-11-18T03:36:25;5.40;99.90
18717;DHT22;9487;50.892;6.906;2023-11-18T03:38:53;5.40;99.90
18717;DHT22;9487;50.892;6.906;2023-11-18T03:41:22;5.40;99.90
18717;DHT22;9487;50.892;6.906;2023-11-18T03:43:50;5.40;99.90
18717;DHT22;9487;50.892;6.906;2023-11-18T03:46:18;5.40;99.90
18717;DHT22;9487;50.892;6.906;2023-11-18T03:48:45;5.40;99.90
18717;DHT22;9487;50.892;6.906;2023-11-18T03:51:13;5.30;99.90
18717;DHT22;9487;50.892;6.906;2023-11-18T03:53:43;5.40;99.90
18717;DHT22;9487;50.892;6.906;2023-11-18T03:56:16;5.40;99.90
18717;DHT22;9487;50.892;6.906;2023-11-18T03:58:44;5.40;99.90
18717;DHT22;9487;50.892;6.906;2023-11-18T04:01:19;5.30;99.90
18717;DHT22;9487;50.892;6.906;2023-11-18T04:03:49;5.30;99.90
18717;DHT22;9487;50.892;6.906;2023-11-18T04:06:18;5.30;99.90
18717;DHT22;9487;50.892;6.906;2023-11-18T04:08:45;5.30;99.90
18717;DHT22;9487;50.892;6.906;2023-11-18T04:11:12;5.30;99.90
18717;DHT22;9487;50.892;6.906;2023-11-18T04:13:40;5.30;99.90
18717;DHT22;9487;50.892;6.906;2023-11-18T04:16:10;5.30;99.90
18717;DHT22;9487;50.892;6.906;2023-11-18T04:18:39;5.40;99.90
18717;DHT22;9487;50.892;6.906;2023-11-18T04:21:07;5.50;99.90
18717;DHT22;9487;50.892;6.906;2023-11-18T04:23:36;5.50;99.90
18717;DHT22;9487;50.892;6.906;2023-11-18T04:26:04;5.50;99.90
18717;DHT22;9487;50.892;6.906;2023-11-18T04:28:31;5.40;99.90
18717;DHT22;9487;50.892;6.906;2023-11-18T04:30:58;5.40;99.90
18717;DHT22;9487;50.892;6.906;2023-11-18T04:33:26;5.40;99.90
18717;DHT22;9487;50.892;6.906;2023-11-18T04:35:55;5.30;99.90
18717;DHT22;9487;50.892;6.906;2023-11-18T04:38:24;5.30;99.90
18717;DHT22;9487;50.892;6.906;2023-11-18T04:40:52;5.20;99.90
18717;DHT22;9487;50.892;6.906;2023-11-18T04:43:19;5.20;99.90
18717;DHT22;9487;50.892;6.906;2023-11-18T04:45:47;5.20;99.90
18717;DHT22;9487;50.892;6.906;2023-11-18T04:48:14;5.20;99.90
18717;DHT22;9487;50.892;6.906;2023-11-18T04:50:41;5.20;99.90
18717;DHT22;9487;50.892;6.906;2023-11-18T04:53:08;5.20;99.90
18717;DHT22;9487;50.892;6.906;2023-11-18T04:55:36;5.30;99.90
18717;DHT22;9487;50.892;6.906;2023-11-18T04:58:04;5.40;99.90
18717;DHT22;9487;50.892;6.906;2023-11-18T05:00:31;5.30;99.90
18717;DHT22;9487;50.892;6.906;2023-11-18T05:02:58;5.20;99.90
18717;DHT22;9487;50.892;6.906;2023-11-18T05:05:25;5.30;99.90
18717;DHT22;9487;50.892;6.906;2023-11-18T05:07:52;5.30;99.90
18717;DHT22;9487;50.892;6.906;2023-11-18T05:10:19;5.20;99.90
18717;DHT22;9487;50.892;6.906;2023-11-18T05:12:46;5.20;99.90
18717;DHT22;9487;50.892;6.906;2023-11-18T05:15:22;5.20;99.90
18717;DHT22;9487;50.892;6.906;2023-11-18T05:17:51;5.10;99.90
18717;DHT22;9487;50.892;6.906;2023-11-18T05:20:17;5.20;99.90
18717;DHT22;9487;50.892;6.906;2023-11-18T05:22:44;5.20;99.90
18717;DHT22;9487;50.892;6.906;2023-11-18T05:25:12;5.20;99.90
18717;DHT22;9487;50.892;6.906;2023-11-18T05:27:39;5.20;99.90
18717;DHT22;9487;50.892;6.906;2023-11-18T05:30:07;5.20;99.90
18717;DHT22;9487;50.892;6.906;2023-11-18T05:32:36;5.20;99.90
18717;DHT22;9487;50.892;6.906;2023-11-18T05:35:04;5.20;99.90
18717;DHT22;9487;50.892;6.906;2023-11-18T05:37:31;5.20;99.90
18717;DHT22;9487;50.892;6.906;2023-11-18T05:40:01;5.20;99.90
18717;DHT22;9487;50.892;6.906;2023-11-18T05:42:32;5.20;99.90
18717;DHT22;9487;50.892;6.906;2023-11-18T05:45:00;5.20;99.90
18717;DHT22;9487;50.892;6.906;2023-11-18T05:47:27;5.20;99.90
18717;DHT22;9487;50.892;6.906;2023-11-18T05:49:55;5.30;99.90
18717;DHT22;9487;50.892;6.906;2023-11-18T05:52:22;5.30;99.90
18717;DHT22;9487;50.892;6.906;2023-11-18T05:54:50;5.20;99.90
18717;DHT22;9487;50.892;6.906;2023-11-18T05:57:18;5.20;99.90
18717;DHT22;9487;50.892;6.906;2023-11-18T05:59:45;5.30;99.90
18717;DHT22;9487;50.892;6.906;2023-11-18T06:02:14;5.30;99.90
18717;DHT22;9487;50.892;6.906;2023-11-18T06:04:44;5.30;99.90
18717;DHT22;9487;50.892;6.906;2023-11-18T06:07:12;5.30;99.90
18717;DHT22;9487;50.892;6.906;2023-11-18T06:09:39;5.30;99.90
18717;DHT22;9487;50.892;6.906;2023-11-18T06:12:07;5.40;99.90
18717;DHT22;9487;50.892;6.906;2023-11-18T06:14:36;5.50;99.90
18717;DHT22;9487;50.892;6.906;2023-11-18T06:17:04;5.50;99.90
18717;DHT22;9487;50.892;6.906;2023-11-18T06:19:33;5.40;99.90
18717;DHT22;9487;50.892;6.906;2023-11-18T06:22:00;5.50;99.90
18717;DHT22;9487;50.892;6.906;2023-11-18T06:24:28;5.50;99.90
18717;DHT22;9487;50.892;6.906;2023-11-18T06:26:58;5.60;99.90
18717;DHT22;9487;50.892;6.906;2023-11-18T06:29:25;5.60;99.90
18717;DHT22;9487;50.892;6.906;2023-11-18T06:31:55;5.60;99.90
18717;DHT22;9487;50.892;6.906;2023-11-18T06:34:22;5.60;99.90
18717;DHT22;9487;50.892;6.906;2023-11-18T06:36:48;5.60;99.90
18717;DHT22;9487;50.892;6.906;2023-11-18T06:39:16;5.70;99.90
18717;DHT22;9487;50.892;6.906;2023-11-18T06:41:46;5.70;99.90
18717;DHT22;9487;50.892;6.906;2023-11-18T06:44:17;5.70;99.90
18717;DHT22;9487;50.892;6.906;2023-11-18T06:46:49;5.70;99.90
18717;DHT22;9487;50.892;6.906;2023-11-18T06:49:16;5.60;99.90
18717;DHT22;9487;50.892;6.906;2023-11-18T06:51:44;5.60;99.90
18717;DHT22;9487;50.892;6.906;2023-11-18T06:54:11;5.70;99.90
18717;DHT22;9487;50.892;6.906;2023-11-18T06:56:40;5.70;99.90
18717;DHT22;9487;50.892;6.906;2023-11-18T06:59:10;5.70;99.90
18717;DHT22;9487;50.892;6.906;2023-11-18T07:01:38;5.90;99.90
18717;DHT22;9487;50.892;6.906;2023-11-18T07:04:06;5.90;99.90
18717;DHT22;9487;50.892;6.906;2023-11-18T07:06:34;5.90;99.90
18717;DHT22;9487;50.892;6.906;2023-11-18T07:09:04;5.90;99.90
18717;DHT22;9487;50.892;6.906;2023-11-18T07:11:38;5.90;99.90
18717;DHT22;9487;50.892;6.906;2023-11-18T07:14:05;5.90;99.90
18717;DHT22;9487;50.892;6.906;2023-11-18T07:16:37;5.80;99.90
18717;DHT22;9487;50.892;6.906;2023-11-18T07:19:04;5.80;99.90
18717;DHT22;9487;50.892;6.906;2023-11-18T07:21:32;5.80;99.90
18717;DHT22;9487;50.892;6.906;2023-11-18T07:23:59;5.90;99.90
18717;DHT22;9487;50.892;6.906;2023-11-18T07:26:27;6.00;99.90
18717;DHT22;9487;50.892;6.906;2023-11-18T07:28:54;6.00;99.90
18717;DHT22;9487;50.892;6.906;2023-11-18T07:31:21;6.00;99.90
18717;DHT22;9487;50.892;6.906;2023-11-18T07:33:49;6.00;99.90
18717;DHT22;9487;50.892;6.906;2023-11-18T07:36:18;6.10;99.90
18717;DHT22;9487;50.892;6.906;2023-11-18T07:38:46;6.10;99.90
18717;DHT22;9487;50.892;6.906;2023-11-18T07:41:13;6.10;99.90
18717;DHT22;9487;50.892;6.906;2023-11-18T07:43:49;6.10;99.90
18717;DHT22;9487;50.892;6.906;2023-11-18T07:46:18;6.10;99.90
18717;DHT22;9487;50.892;6.906;2023-11-18T07:48:47;6.10;99.90
18717;DHT22;9487;50.892;6.906;2023-11-18T07:51:15;6.10;99.90
18717;DHT22;9487;50.892;6.906;2023-11-18T07:53:47;6.00;99.90
18717;DHT22;9487;50.892;6.906;2023-11-18T07:56:15;6.10;99.90
18717;DHT22;9487;50.892;6.906;2023-11-18T07:58:42;6.10;99.90
18717;DHT22;9487;50.892;6.906;2023-11-18T08:01:11;6.10;99.90
18717;DHT22;9487;50.892;6.906;2023-11-18T08:03:38;6.10;99.90
18717;DHT22;9487;50.892;6.906;2023-11-18T08:06:07;6.00;99.90
18717;DHT22;9487;50.892;6.906;2023-11-18T08:08:35;6.00;99.90
18717;DHT22;9487;50.892;6.906;2023-11-18T08:11:04;6.00;99.90
18717;DHT22;9487;50.892;6.906;2023-11-18T08:13:31;6.00;99.90
18717;DHT22;9487;50.892;6.906;2023-11-18T08:15:58;6.00;99.90
18717;DHT22;9487;50.892;6.906;2023-11-18T08:18:25;6.10;99.90
18717;DHT22;9487;50.892;6.906;2023-11-18T08:20:53;6.10;99.90
18717;DHT22;9487;50.892;6.906;2023-11-18T08:23:20;6.20;99.90
18717;DHT22;9487;50.892;6.906;2023-11-18T08:25:48;6.20;99.90
18717;DHT22;9487;50.892;6.906;2023-11-18T08:28:16;6.30;99.90
18717;DHT22;9487;50.892;6.906;2023-11-18T08:30:43;6.30;99.90
18717;DHT22;9487;50.892;6.906;2023-11-18T08:33:10;6.30;99.90
18717;DHT22;9487;50.892;6.906;2023-11-18T08:35:37;6.30;99.90
18717;DHT22;9487;50.892;6.906;2023-11-18T08:38:05;6.40;99.90
18717;DHT22;9487;50.892;6.906;2023-11-18T08:40:33;6.40;99.90
18717;DHT22;9487;50.892;6.906;2023-11-18T08:43:01;6.40;99.90
18717;DHT22;9487;50.892;6.906;2023-11-18T08:45:33;6.40;99.90
18717;DHT22;9487;50.892;6.906;2023-11-18T08:48:01;6.50;99.90
18717;DHT22;9487;50.892;6.906;2023-11-18T08:50:32;6.50;99.90
18717;DHT22;9487;50.892;6.906;2023-11-18T08:53:00;6.50;99.90
18717;DHT22;9487;50.892;6.906;2023-11-18T08:55:31;6.50;99.90
18717;DHT22;9487;50.892;6.906;2023-11-18T08:58:17;6.50;99.90
18717;DHT22;9487;50.892;6.906;2023-11-18T09:00:49;6.60;99.90
18717;DHT22;9487;50.892;6.906;2023-11-18T09:03:19;6.60;99.90
18717;DHT22;9487;50.892;6.906;2023-11-18T09:05:52;6.60;99.90
18717;DHT22;9487;50.892;6.906;2023-11-18T09:08:25;6.60;99.90
18717;DHT22;9487;50.892;6.906;2023-11-18T09:10:53;6.60;99.90
18717;DHT22;9487;50.892;6.906;2023-11-18T09:13:23;6.70;99.90
18717;DHT22;9487;50.892;6.906;2023-11-18T09:15:54;6.70;99.90
18717;DHT22;9487;50.892;6.906;2023-11-18T09:18:23;6.80;99.90
18717;DHT22;9487;50.892;6.906;2023-11-18T09:20:50;7.50;99.90
18717;DHT22;9487;50.892;6.906;2023-11-18T09:23:18;8.80;99.90
18717;DHT22;9487;50.892;6.906;2023-11-18T09:25:46;9.30;99.90
18717;DHT22;9487;50.892;6.906;2023-11-18T09:28:14;8.90;99.90
18717;DHT22;9487;50.892;6.906;2023-11-18T09:30:43;8.30;99.90
18717;DHT22;9487;50.892;6.906;2023-11-18T09:33:17;8.20;99.90
18717;DHT22;9487;50.892;6.906;2023-11-18T09:35:51;7.90;99.90
18717;DHT22;9487;50.892;6.906;2023-11-18T09:38:21;7.90;99.90
18717;DHT22;9487;50.892;6.906;2023-11-18T09:40:51;7.80;99.90
18717;DHT22;9487;50.892;6.906;2023-11-18T09:43:19;7.60;99.90
18717;DHT22;9487;50.892;6.906;2023-11-18T09:45:50;7.50;99.90
18717;DHT22;9487;50.892;6.906;2023-11-18T09:48:21;7.50;99.90
18717;DHT22;9487;50.892;6.906;2023-11-18T09:50:51;7.40;99.90
18717;DHT22;9487;50.892;6.906;2023-11-18T09:53:19;7.50;99.90
18717;DHT22;9487;50.892;6.906;2023-11-18T09:55:53;7.40;99.90
18717;DHT22;9487;50.892;6.906;2023-11-18T09:58:30;7.40;99.90
18717;DHT22;9487;50.892;6.906;2023-11-18T10:01:03;7.40;99.90
18717;DHT22;9487;50.892;6.906;2023-11-18T10:03:30;7.40;99.90
18717;DHT22;9487;50.892;6.906;2023-11-18T10:05:57;7.40;99.90
18717;DHT22;9487;50.892;6.906;2023-11-18T10:08:30;7.40;99.90
18717;DHT22;9487;50.892;6.906;2023-11-18T10:10:57;7.40;99.90
18717;DHT22;9487;50.892;6.906;2023-11-18T10:13:31;7.40;99.90
18717;DHT22;9487;50.892;6.906;2023-11-18T10:16:00;7.40;99.90
18717;DHT22;9487;50.892;6.906;2023-11-18T10:18:32;7.50;99.90
18717;DHT22;9487;50.892;6.906;2023-11-18T10:21:02;7.50;99.90
18717;DHT22;9487;50.892;6.906;2023-11-18T10:23:33;7.50;99.90
18717;DHT22;9487;50.892;6.906;2023-11-18T10:26:03;7.40;99.90
18717;DHT22;9487;50.892;6.906;2023-11-18T10:28:32;7.50;99.90
18717;DHT22;9487;50.892;6.906;2023-11-18T10:31:00;7.50;99.90
18717;DHT22;9487;50.892;6.906;2023-11-18T10:33:31;7.50;99.90
18717;DHT22;9487;50.892;6.906;2023-11-18T10:35:59;7.40;99.90
18717;DHT22;9487;50.892;6.906;2023-11-18T10:38:29;7.50;99.90
18717;DHT22;9487;50.892;6.906;2023-11-18T10:40:57;7.50;99.90
18717;DHT22;9487;50.892;6.906;2023-11-18T10:43:26;7.50;99.90
18717;DHT22;9487;50.892;6.906;2023-11-18T10:46:04;7.50;99.90
18717;DHT22;9487;50.892;6.906;2023-11-18T10:48:39;7.50;99.90
18717;DHT22;9487;50.892;6.906;2023-11-18T10:51:08;7.60;99.90
18717;DHT22;9487;50.892;6.906;2023-11-18T10:53:39;7.60;99.90
18717;DHT22;9487;50.892;6.906;2023-11-18T10:56:17;7.60;99.90
18717;DHT22;9487;50.892;6.906;2023-11-18T10:58:49;7.70;99.90
18717;DHT22;9487;50.892;6.906;2023-11-18T11:01:27;7.70;99.90
18717;DHT22;9487;50.892;6.906;2023-11-18T11:03:55;7.80;99.90
18717;DHT22;9487;50.892;6.906;2023-11-18T11:06:23;7.80;99.90
18717;DHT22;9487;50.892;6.906;2023-11-18T11:08:50;7.80;99.90
18717;DHT22;9487;50.892;6.906;2023-11-18T11:11:20;7.80;99.90
18717;DHT22;9487;50.892;6.906;2023-11-18T11:13:50;7.80;99.90
18717;DHT22;9487;50.892;6.906;2023-11-18T11:16:23;7.80;99.90
18717;DHT22;9487;50.892;6.906;2023-11-18T11:18:56;7.80;99.90
18717;DHT22;9487;50.892;6.906;2023-11-18T11:21:26;7.80;99.90
18717;DHT22;9487;50.892;6.906;2023-11-18T11:24:00;7.80;99.90
18717;DHT22;9487;50.892;6.906;2023-11-18T11:26:36;7.80;99.90
18717;DHT22;9487;50.892;6.906;2023-11-18T11:29:25;7.90;99.90
18717;DHT22;9487;50.892;6.906;2023-11-18T11:32:05;7.90;99.90
18717;DHT22;9487;50.892;6.906;2023-11-18T11:34:40;8.00;99.90
18717;DHT22;9487;50.892;6.906;2023-11-18T11:37:11;8.00;99.90
18717;DHT22;9487;50.892;6.906;2023-11-18T11:39:41;8.00;99.90
18717;DHT22;9487;50.892;6.906;2023-11-18T11:42:13;8.00;99.90
18717;DHT22;9487;50.892;6.906;2023-11-18T11:44:43;8.10;99.90
18717;DHT22;9487;50.892;6.906;2023-11-18T11:47:11;8.00;99.90
18717;DHT22;9487;50.892;6.906;2023-11-18T11:49:47;8.10;99.90
18717;DHT22;9487;50.892;6.906;2023-11-18T11:52:19;8.10;99.90
18717;DHT22;9487;50.892;6.906;2023-11-18T11:55:00;8.10;99.90
18717;DHT22;9487;50.892;6.906;2023-11-18T11:57:29;8.10;99.90
18717;DHT22;9487;50.892;6.906;2023-11-18T12:00:03;8.10;99.90
18717;DHT22;9487;50.892;6.906;2023-11-18T12:02:48;8.20;99.90
18717;DHT22;9487;50.892;6.906;2023-11-18T12:05:17;8.20;99.90
18717;DHT22;9487;50.892;6.906;2023-11-18T12:07:47;8.20;99.90
18717;DHT22;9487;50.892;6.906;2023-11-18T12:10:14;8.20;99.90
18717;DHT22;9487;50.892;6.906;2023-11-18T12:12:46;8.30;99.90
18717;DHT22;9487;50.892;6.906;2023-11-18T12:15:13;8.40;99.90
18717;DHT22;9487;50.892;6.906;2023-11-18T12:18:11;8.30;99.90
18717;DHT22;9487;50.892;6.906;2023-11-18T12:20:44;8.30;99.90
18717;DHT22;9487;50.892;6.906;2023-11-18T12:23:13;8.30;99.90
18717;DHT22;9487;50.892;6.906;2023-11-18T12:25:41;8.30;99.90
18717;DHT22;9487;50.892;6.906;2023-11-18T12:28:14;8.30;99.90
18717;DHT22;9487;50.892;6.906;2023-11-18T12:30:43;8.30;99.90
18717;DHT22;9487;50.892;6.906;2023-11-18T12:33:21;8.30;99.90
18717;DHT22;9487;50.892;6.906;2023-11-18T12:42:07;8.40;99.90
18717;DHT22;9487;50.892;6.906;2023-11-18T12:45:08;8.40;99.90
18717;DHT22;9487;50.892;6.906;2023-11-18T12:47:42;8.40;99.90
18717;DHT22;9487;50.892;6.906;2023-11-18T12:50:11;8.40;99.90
18717;DHT22;9487;50.892;6.906;2023-11-18T12:52:49;8.40;99.90
18717;DHT22;9487;50.892;6.906;2023-11-18T12:55:16;8.40;99.90
18717;DHT22;9487;50.892;6.906;2023-11-18T12:57:46;8.40;99.90
18717;DHT22;9487;50.892;6.906;2023-11-18T13:00:16;8.30;99.90
18717;DHT22;9487;50.892;6.906;2023-11-18T13:02:52;8.30;99.90
18717;DHT22;9487;50.892;6.906;2023-11-18T13:05:19;8.20;99.90
18717;DHT22;9487;50.892;6.906;2023-11-18T13:07:46;8.20;99.90
18717;DHT22;9487;50.892;6.906;2023-11-18T13:10:15;8.30;99.90
18717;DHT22;9487;50.892;6.906;2023-11-18T13:12:42;8.30;99.90
18717;DHT22;9487;50.892;6.906;2023-11-18T13:15:10;8.30;99.90
18717;DHT22;9487;50.892;6.906;2023-11-18T13:17:39;8.30;99.90
18717;DHT22;9487;50.892;6.906;2023-11-18T13:20:13;8.40;99.90
18717;DHT22;9487;50.892;6.906;2023-11-18T13:22:42;9.20;99.90
18717;DHT22;9487;50.892;6.906;2023-11-18T13:25:10;10.30;99.90
18717;DHT22;9487;50.892;6.906;2023-11-18T13:27:39;10.20;99.90
18717;DHT22;9487;50.892;6.906;2023-11-18T13:30:07;10.10;99.90
18717;DHT22;9487;50.892;6.906;2023-11-18T13:32:41;9.90;99.90
18717;DHT22;9487;50.892;6.906;2023-11-18T13:35:08;9.90;99.90
18717;DHT22;9487;50.892;6.906;2023-11-18T13:37:36;9.70;99.90
18717;DHT22;9487;50.892;6.906;2023-11-18T13:40:04;9.30;99.90
18717;DHT22;9487;50.892;6.906;2023-11-18T13:42:31;9.00;99.90
18717;DHT22;9487;50.892;6.906;2023-11-18T13:44:59;8.80;99.90
18717;DHT22;9487;50.892;6.906;2023-11-18T13:47:27;8.70;99.90
18717;DHT22;9487;50.892;6.906;2023-11-18T13:49:55;8.60;99.90
18717;DHT22;9487;50.892;6.906;2023-11-18T13:52:24;8.50;99.90
18717;DHT22;9487;50.892;6.906;2023-11-18T13:54:51;8.50;99.90
18717;DHT22;9487;50.892;6.906;2023-11-18T13:57:21;8.40;99.90
18717;DHT22;9487;50.892;6.906;2023-11-18T13:59:49;8.40;99.90
18717;DHT22;9487;50.892;6.906;2023-11-18T14:02:16;8.40;99.90
18717;DHT22;9487;50.892;6.906;2023-11-18T14:04:43;8.30;99.90
18717;DHT22;9487;50.892;6.906;2023-11-18T14:07:15;8.20;99.90
18717;DHT22;9487;50.892;6.906;2023-11-18T14:09:43;8.20;99.90
18717;DHT22;9487;50.892;6.906;2023-11-18T14:12:12;8.20;99.90
18717;DHT22;9487;50.892;6.906;2023-11-18T14:14:39;8.20;99.90
18717;DHT22;9487;50.892;6.906;2023-11-18T14:17:07;8.20;99.90
18717;DHT22;9487;50.892;6.906;2023-11-18T14:19:35;8.20;99.90
18717;DHT22;9487;50.892;6.906;2023-11-18T14:22:03;8.20;99.90
18717;DHT22;9487;50.892;6.906;2023-11-18T14:24:33;8.20;99.90
18717;DHT22;9487;50.892;6.906;2023-11-18T14:27:00;8.20;99.90
18717;DHT22;9487;50.892;6.906;2023-11-18T14:29:27;8.20;99.90
18717;DHT22;9487;50.892;6.906;2023-11-18T14:31:54;8.20;99.90
18717;DHT22;9487;50.892;6.906;2023-11-18T14:34:21;8.20;99.90
18717;DHT22;9487;50.892;6.906;2023-11-18T14:36:49;8.10;99.90
18717;DHT22;9487;50.892;6.906;2023-11-18T14:39:16;8.10;99.90
18717;DHT22;9487;50.892;6.906;2023-11-18T14:41:45;8.10;99.90
18717;DHT22;9487;50.892;6.906;2023-11-18T14:44:13;8.10;99.90
18717;DHT22;9487;50.892;6.906;2023-11-18T14:46:39;8.10;99.90
18717;DHT22;9487;50.892;6.906;2023-11-18T14:49:07;8.10;99.90
18717;DHT22;9487;50.892;6.906;2023-11-18T14:51:35;8.10;99.90
18717;DHT22;9487;50.892;6.906;2023-11-18T14:54:02;8.10;99.90
18717;DHT22;9487;50.892;6.906;2023-11-18T14:56:31;8.10;99.90
18717;DHT22;9487;50.892;6.906;2023-11-18T14:58:59;8.00;99.90
18717;DHT22;9487;50.892;6.906;2023-11-18T15:01:26;8.00;99.90
18717;DHT22;9487;50.892;6.906;2023-11-18T15:03:54;8.00;99.90
18717;DHT22;9487;50.892;6.906;2023-11-18T15:06:25;8.00;99.90
18717;DHT22;9487;50.892;6.906;2023-11-18T15:08:53;8.00;99.90
18717;DHT22;9487;50.892;6.906;2023-11-18T15:11:26;8.00;99.90
18717;DHT22;9487;50.892;6.906;2023-11-18T15:13:54;8.00;99.90
18717;DHT22;9487;50.892;6.906;2023-11-18T15:16:23;8.00;99.90
18717;DHT22;9487;50.892;6.906;2023-11-18T15:18:50;8.00;99.90
18717;DHT22;9487;50.892;6.906;2023-11-18T15:21:17;8.00;99.90
18717;DHT22;9487;50.892;6.906;2023-11-18T15:23:44;8.00;99.90
18717;DHT22;9487;50.892;6.906;2023-11-18T15:26:13;8.00;99.90
18717;DHT22;9487;50.892;6.906;2023-11-18T15:28:40;8.00;99.90
18717;DHT22;9487;50.892;6.906;2023-11-18T15:31:07;8.00;99.90
18717;DHT22;9487;50.892;6.906;2023-11-18T15:33:35;8.00;99.90
18717;DHT22;9487;50.892;6.906;2023-11-18T15:36:03;8.00;99.90
18717;DHT22;9487;50.892;6.906;2023-11-18T15:38:32;8.00;99.90
18717;DHT22;9487;50.892;6.906;2023-11-18T15:40:59;8.00;99.90
18717;DHT22;9487;50.892;6.906;2023-11-18T15:43:26;8.00;99.90
18717;DHT22;9487;50.892;6.906;2023-11-18T15:45:54;7.90;99.90
18717;DHT22;9487;50.892;6.906;2023-11-18T15:48:21;7.90;99.90
18717;DHT22;9487;50.892;6.906;2023-11-18T15:50:50;8.00;99.90
18717;DHT22;9487;50.892;6.906;2023-11-18T15:53:16;8.00;99.90
18717;DHT22;9487;50.892;6.906;2023-11-18T15:55:45;7.90;99.90
18717;DHT22;9487;50.892;6.906;2023-11-18T15:58:13;7.90;99.90
18717;DHT22;9487;50.892;6.906;2023-11-18T16:00:39;7.90;99.90
18717;DHT22;9487;50.892;6.906;2023-11-18T16:03:06;8.00;99.90
18717;DHT22;9487;50.892;6.906;2023-11-18T16:05:34;8.00;99.90
18717;DHT22;9487;50.892;6.906;2023-11-18T16:08:03;8.00;99.90
18717;DHT22;9487;50.892;6.906;2023-11-18T16:10:32;8.00;99.90
18717;DHT22;9487;50.892;6.906;2023-11-18T16:13:00;8.00;99.90
18717;DHT22;9487;50.892;6.906;2023-11-18T16:15:28;8.00;99.90
18717;DHT22;9487;50.892;6.906;2023-11-18T16:17:56;8.00;99.90
18717;DHT22;9487;50.892;6.906;2023-11-18T16:20:24;8.00;99.90